Time;durP1;ratioP1;P1;durP2;ratioP2;P2;SDS_P1;SDS_P2;PMS_P1;PMS_P2;Temp;Humidity;BMP_temperature;BMP_pressure;BME280_temperature;BME280_humidity;BME280_pressure;Samples;Min_cycle;Max_cycle;Signal;HPM_P1;HPM_P2
2022/11/24 00:01:07;;;;;;;7.85;2.50;;;;;;;7.50;52.86;100071.63;5011847;28;20108;-71
2022/11/24 00:03:35;;;;;;;8.00;2.70;;;;;;;7.49;53.23;100068.03;5019863;28;20050;-71
2022/11/24 00:06:06;;;;;;;6.30;2.60;;;;;;;7.51;52.97;100070.63;5004483;28;20045;-70
2022/11/24 00:08:35;;;;;;;7.05;2.40;;;;;;;7.51;53.04;100076.06;4996701;28;20048;-71
2022/11/24 00:11:05;;;;;;;5.35;2.05;;;;;;;7.51;53.17;100076.06;5006136;28;20045;-71
2022/11/24 00:13:33;;;;;;;7.40;2.25;;;;;;;7.50;53.15;100071.63;5004102;28;20064;-71
2022/11/24 00:16:09;;;;;;;6.05;2.35;;;;;;;7.52;53.34;100075.06;5001689;28;20042;-71
2022/11/24 00:18:37;;;;;;;6.25;2.20;;;;;;;7.50;52.90;100072.50;5005974;28;20917;-71
2022/11/24 00:21:06;;;;;;;7.63;2.42;;;;;;;7.51;53.03;100078.81;5004357;28;20117;-71
2022/11/24 00:23:36;;;;;;;7.28;2.20;;;;;;;7.51;52.93;100066.03;5006169;28;20056;-71
2022/11/24 00:26:06;;;;;;;7.78;2.60;;;;;;;7.52;53.05;100077.78;5000657;28;20073;-70
2022/11/24 00:28:35;;;;;;;5.40;1.95;;;;;;;7.52;52.85;100078.63;5004602;28;20057;-70
2022/11/24 00:31:04;;;;;;;5.10;1.98;;;;;;;7.52;52.83;100073.19;5005395;28;20092;-70
2022/11/24 00:33:32;;;;;;;6.43;2.50;;;;;;;7.51;52.64;100074.22;5009563;28;20045;-70
2022/11/24 00:36:00;;;;;;;7.80;2.53;;;;;;;7.51;52.86;100073.34;5011589;28;20061;-70
2022/11/24 00:38:28;;;;;;;5.57;2.38;;;;;;;7.48;52.73;100069.03;5009230;28;20121;-71
2022/11/24 00:40:57;;;;;;;8.02;2.70;;;;;;;7.50;52.66;100071.63;5007363;28;20499;-70
2022/11/24 00:43:25;;;;;;;8.43;2.60;;;;;;;7.47;52.78;100080.03;5006802;28;20643;-71
2022/11/24 00:45:53;;;;;;;6.00;2.63;;;;;;;7.45;52.46;100073.88;5008624;28;20053;-70
2022/11/24 00:48:22;;;;;;;6.20;2.85;;;;;;;7.43;52.38;100082.19;5008610;28;20065;-70
2022/11/24 00:50:56;;;;;;;6.10;2.50;;;;;;;7.43;52.99;100090.34;5008564;28;20415;-70
2022/11/24 00:53:24;;;;;;;6.25;2.63;;;;;;;7.39;52.81;100088.00;5004203;28;20096;-70
2022/11/24 00:55:53;;;;;;;5.60;2.70;;;;;;;7.36;52.74;100083.69;5008972;28;20120;-70
2022/11/24 00:58:23;;;;;;;6.97;2.22;;;;;;;7.36;52.50;100091.00;5008757;28;20065;-70
2022/11/24 01:00:51;;;;;;;7.47;2.70;;;;;;;7.35;52.37;100095.59;5003623;28;20046;-70
2022/11/24 01:03:20;;;;;;;5.57;2.50;;;;;;;7.33;52.89;100094.88;5003140;28;20049;-70
2022/11/24 01:05:48;;;;;;;6.03;2.60;;;;;;;7.31;52.70;100093.25;5008429;28;20087;-71
2022/11/24 01:08:16;;;;;;;8.32;2.90;;;;;;;7.30;52.63;100099.69;5039422;28;20384;-71
2022/11/24 01:10:44;;;;;;;5.70;2.15;;;;;;;7.27;52.60;100106.25;5008211;28;20045;-71
2022/11/24 01:13:12;;;;;;;5.47;2.30;;;;;;;7.27;52.86;100103.53;5007632;28;20093;-70
2022/11/24 01:15:41;;;;;;;6.85;2.47;;;;;;;7.27;52.81;100114.41;5007919;28;20038;-70
2022/11/24 01:18:12;;;;;;;6.18;2.40;;;;;;;7.25;52.62;100111.00;5007110;28;20495;-70
2022/11/24 01:20:39;;;;;;;5.55;2.45;;;;;;;7.24;52.78;100117.44;5008353;28;20444;-70
2022/11/24 01:23:07;;;;;;;7.97;2.60;;;;;;;7.25;52.76;100110.13;5008332;28;20053;-70
2022/11/24 01:25:39;;;;;;;5.13;2.10;;;;;;;7.27;53.14;100116.31;5002213;28;20436;-70
2022/11/24 01:28:07;;;;;;;6.38;2.00;;;;;;;7.24;53.14;100117.44;5002662;28;20042;-70
2022/11/24 01:30:34;;;;;;;7.18;2.10;;;;;;;7.25;53.23;100121.88;5006867;28;20046;-72
2022/11/24 01:33:04;;;;;;;6.15;1.90;;;;;;;7.26;53.18;100112.72;5001829;28;20089;-72
2022/11/24 01:35:32;;;;;;;5.82;1.80;;;;;;;7.27;53.09;100119.88;5006094;28;20046;-72
2022/11/24 01:38:00;;;;;;;7.40;1.90;;;;;;;7.29;53.07;100125.19;5007465;28;20104;-72
2022/11/24 01:40:27;;;;;;;6.53;1.70;;;;;;;7.29;53.63;100120.59;5005388;28;20068;-72
2022/11/24 01:42:55;;;;;;;7.25;2.28;;;;;;;7.31;53.30;100113.19;5006993;28;20134;-72
2022/11/24 01:45:32;;;;;;;4.47;1.67;;;;;;;7.36;53.65;100119.06;5006646;28;20116;-72
2022/11/24 01:48:05;;;;;;;6.18;2.40;;;;;;;7.36;53.42;100129.97;5039911;28;20137;-72
2022/11/24 01:50:35;;;;;;;6.90;1.83;;;;;;;7.39;53.23;100123.41;4999606;28;20049;-72
2022/11/24 01:53:05;;;;;;;7.13;2.00;;;;;;;7.41;53.57;100130.47;5008258;28;20120;-72
2022/11/24 01:55:37;;;;;;;6.80;1.77;;;;;;;7.42;53.56;100132.19;5006107;28;20124;-72
2022/11/24 01:58:09;;;;;;;6.18;1.70;;;;;;;7.43;53.45;100127.59;5039920;28;20046;-72
2022/11/24 02:00:40;;;;;;;5.40;1.55;;;;;;;7.45;53.63;100129.19;5006949;28;20060;-72
2022/11/24 02:03:13;;;;;;;6.55;1.75;;;;;;;7.47;53.49;100132.63;5035285;28;20104;-71
2022/11/24 02:05:45;;;;;;;6.97;1.90;;;;;;;7.47;53.49;100138.09;5007219;28;20050;-72
2022/11/24 02:08:21;;;;;;;7.60;1.90;;;;;;;7.49;53.80;100129.78;5006510;28;20042;-72
2022/11/24 02:10:49;;;;;;;4.93;1.35;;;;;;;7.50;53.42;100137.84;5012689;28;20045;-72
2022/11/24 02:13:17;;;;;;;7.05;1.67;;;;;;;7.53;53.45;100139.41;5008982;28;20040;-72
2022/11/24 02:15:45;;;;;;;7.15;1.40;;;;;;;7.55;53.70;100140.16;5000313;28;20046;-72
2022/11/24 02:18:15;;;;;;;5.10;1.50;;;;;;;7.57;53.12;100144.47;5006517;28;20125;-72
2022/11/24 02:20:43;;;;;;;5.30;1.70;;;;;;;7.57;53.37;100147.19;5007021;28;20073;-72
2022/11/24 02:23:18;;;;;;;5.65;1.50;;;;;;;7.61;53.34;100146.91;5005830;28;20059;-72
2022/11/24 02:25:55;;;;;;;6.13;1.52;;;;;;;7.63;53.70;100142.19;5005823;28;20519;-72
2022/11/24 02:28:28;;;;;;;7.53;1.98;;;;;;;7.64;53.47;100154.81;5004454;28;20052;-71
2022/11/24 02:30:58;;;;;;;4.30;1.65;;;;;;;7.64;53.51;100152.97;5004987;28;20050;-72
2022/11/24 02:33:26;;;;;;;7.65;1.88;;;;;;;7.65;53.45;100156.56;5039716;28;20148;-72
2022/11/24 02:35:54;;;;;;;5.85;1.88;;;;;;;7.67;53.53;100147.28;5008807;28;20470;-72
2022/11/24 02:38:30;;;;;;;4.50;1.38;;;;;;;7.71;53.92;100154.16;5005988;28;20050;-72
2022/11/24 02:41:02;;;;;;;6.45;1.67;;;;;;;7.70;53.47;100152.44;5006104;28;20442;-72
2022/11/24 02:43:35;;;;;;;5.20;1.80;;;;;;;7.72;53.77;100155.03;5006800;28;20092;-72
2022/11/24 02:46:03;;;;;;;9.93;2.80;;;;;;;7.70;53.64;100157.00;5035926;23;20052;-84
2022/11/24 02:48:37;;;;;;;6.13;1.40;;;;;;;7.72;53.50;100161.34;5032974;28;20051;-83
2022/11/24 02:54:38;;;;;;;6.00;1.52;;;;;;;7.74;53.50;100153.91;5022015;28;20037;-83
2022/11/24 02:57:13;;;;;;;5.38;1.65;;;;;;;7.76;53.79;100161.94;5083362;28;20101;-83
2022/11/24 03:00:34;;;;;;;6.00;1.80;;;;;;;7.76;54.01;100162.81;5036355;28;20094;-82
2022/11/24 03:03:37;;;;;;;4.53;1.63;;;;;;;7.75;54.08;100152.91;5049300;28;20050;-83
2022/11/24 03:06:24;;;;;;;6.80;1.80;;;;;;;7.74;53.59;100156.63;5030662;28;20049;-83
2022/11/24 03:08:52;;;;;;;5.47;1.50;;;;;;;7.76;53.83;100161.94;5056403;28;20040;-83
2022/11/24 03:11:20;;;;;;;6.60;1.75;;;;;;;7.78;53.15;100162.66;5045536;28;20051;-82
2022/11/24 03:13:48;;;;;;;4.85;1.75;;;;;;;7.77;53.31;100158.19;5050397;28;20080;-83
2022/11/24 03:16:15;;;;;;;5.22;1.75;;;;;;;7.76;53.24;100160.09;5052302;28;20063;-82
2022/11/24 03:18:46;;;;;;;6.20;1.60;;;;;;;7.78;53.62;100168.09;5052519;28;20144;-81
2022/11/24 03:21:14;;;;;;;5.70;1.77;;;;;;;7.77;53.20;100164.50;5051267;28;20427;-81
2022/11/24 03:23:46;;;;;;;6.10;1.73;;;;;;;7.79;53.40;100178.88;5079368;28;20050;-82
2022/11/24 03:26:16;;;;;;;5.38;1.75;;;;;;;7.78;53.42;100187.16;5076604;28;20045;-81
2022/11/24 03:28:44;;;;;;;5.22;1.70;;;;;;;7.77;53.59;100175.41;5075643;28;20083;-83
2022/11/24 03:31:13;;;;;;;6.07;1.92;;;;;;;7.78;53.50;100177.13;5044717;28;20053;-81
2022/11/24 03:33:41;;;;;;;5.60;1.65;;;;;;;7.79;53.06;100183.44;5050127;28;21645;-82
2022/11/24 03:36:10;;;;;;;4.78;1.77;;;;;;;7.78;53.26;100176.28;5053472;28;20102;-81
2022/11/24 03:38:38;;;;;;;5.65;1.40;;;;;;;7.78;53.44;100188.03;5052360;28;20033;-82
2022/11/24 03:41:06;;;;;;;3.80;1.35;;;;;;;7.78;53.56;100185.31;5085477;28;20506;-83
2022/11/24 03:43:34;;;;;;;5.05;1.58;;;;;;;7.79;53.42;100187.03;5051259;28;20038;-82
2022/11/24 03:46:10;;;;;;;5.82;1.50;;;;;;;7.80;53.35;100182.47;5049328;28;20045;-82
2022/11/24 03:48:38;;;;;;;5.53;1.70;;;;;;;7.78;53.65;100190.75;5047691;28;20126;-82
2022/11/24 03:51:06;;;;;;;6.95;1.90;;;;;;;7.79;53.59;100181.59;5065130;28;20121;-81
2022/11/24 03:53:36;;;;;;;5.55;1.67;;;;;;;7.81;53.07;100189.63;5067222;28;20045;-83
2022/11/24 03:56:04;;;;;;;9.10;1.77;;;;;;;7.78;53.51;100185.31;5063303;28;20076;-82
2022/11/24 03:58:32;;;;;;;6.53;1.42;;;;;;;7.80;53.65;100196.09;5065540;28;20527;-83
2022/11/24 04:01:00;;;;;;;6.00;1.60;;;;;;;7.80;53.33;100193.34;5057441;28;20439;-81
2022/11/24 04:03:28;;;;;;;5.72;2.08;;;;;;;7.79;53.47;100203.38;5055290;28;20087;-81
2022/11/24 04:05:56;;;;;;;4.95;1.67;;;;;;;7.79;53.50;100200.66;5084310;28;20052;-83
2022/11/24 04:08:23;;;;;;;8.82;1.90;;;;;;;7.80;53.50;100196.94;5056785;28;20041;-83
2022/11/24 04:10:54;;;;;;;6.38;1.70;;;;;;;7.83;53.12;100204.00;5055921;28;20194;-83
2022/11/24 04:13:24;;;;;;;6.20;1.77;;;;;;;7.82;53.18;100205.00;5054053;28;20048;-83
2022/11/24 04:15:52;;;;;;;6.57;2.25;;;;;;;7.82;53.63;100207.72;5054329;28;20037;-83
2022/11/24 04:18:20;;;;;;;6.03;1.67;;;;;;;7.83;53.45;100201.28;5056206;28;20044;-82
2022/11/24 04:20:50;;;;;;;7.97;1.73;;;;;;;7.85;53.25;100204.72;5069071;28;20500;-82
2022/11/24 04:23:18;;;;;;;7.63;2.05;;;;;;;7.84;53.64;100206.59;5074101;28;20086;-82
2022/11/24 04:25:46;;;;;;;7.03;1.75;;;;;;;7.84;53.30;100200.28;5081505;28;20053;-83
2022/11/24 04:28:15;;;;;;;5.25;1.70;;;;;;;7.85;53.82;100204.72;5060797;28;20045;-83
2022/11/24 04:30:43;;;;;;;6.63;1.60;;;;;;;7.86;53.46;100209.16;5057054;28;20048;-83
2022/11/24 04:33:13;;;;;;;5.38;1.70;;;;;;;7.86;53.46;100214.59;5059940;28;20052;-83
2022/11/24 04:35:40;;;;;;;6.97;1.63;;;;;;;7.84;53.76;100205.72;5060199;28;20078;-83
2022/11/24 04:38:08;;;;;;;7.13;1.75;;;;;;;7.85;53.49;100218.31;5075177;28;20048;-83
2022/11/24 04:40:37;;;;;;;5.20;1.80;;;;;;;7.86;53.61;100217.34;5060244;28;20398;-83
2022/11/24 04:43:04;;;;;;;5.57;2.33;;;;;;;7.86;53.49;100210.03;5059761;28;20581;-83
2022/11/24 04:45:34;;;;;;;5.65;1.60;;;;;;;7.88;53.58;100218.06;5056183;28;20045;-83
2022/11/24 04:48:01;;;;;;;6.10;1.63;;;;;;;7.87;53.59;100213.63;5060185;28;20057;-82
2022/11/24 04:50:29;;;;;;;7.07;1.70;;;;;;;7.85;53.36;100211.03;5059671;28;20037;-82
2022/11/24 04:52:57;;;;;;;6.38;1.95;;;;;;;7.87;53.42;100222.66;5061130;28;20072;-82
2022/11/24 04:55:25;;;;;;;6.30;1.90;;;;;;;7.86;53.51;100225.50;5060091;28;20049;-83
2022/11/24 04:57:53;;;;;;;6.78;1.55;;;;;;;7.89;53.47;100230.69;5059756;28;20045;-84
2022/11/24 05:00:21;;;;;;;4.70;1.80;;;;;;;7.88;53.46;100227.13;5061107;28;20030;-83
2022/11/24 05:02:50;;;;;;;7.95;2.10;;;;;;;7.89;53.33;100233.44;5057321;28;20063;-83
2022/11/24 05:05:18;;;;;;;8.45;2.40;;;;;;;7.87;53.23;100232.69;5060786;28;20041;-83
2022/11/24 05:07:46;;;;;;;7.68;1.90;;;;;;;7.87;53.33;100225.38;5060289;28;20041;-82
2022/11/24 05:13:01;;;;;;;8.93;3.03;;;;;;;7.88;53.43;100242.59;5088066;28;20091;-83
2022/11/24 05:15:30;;;;;;;9.25;1.92;;;;;;;7.87;53.72;100244.44;5058893;28;20041;-83
2022/11/24 05:18:03;;;;;;;7.75;2.08;;;;;;;7.89;53.36;100247.06;5050334;28;20503;-81
2022/11/24 05:20:34;;;;;;;8.18;2.20;;;;;;;7.87;53.30;100246.31;5068291;28;20103;-82
2022/11/24 05:23:03;;;;;;;5.53;2.28;;;;;;;7.88;53.33;100250.75;5061942;28;20037;-82
2022/11/24 05:25:31;;;;;;;6.85;1.92;;;;;;;7.88;53.41;100258.94;5056405;28;20098;-83
2022/11/24 05:28:01;;;;;;;6.63;1.75;;;;;;;7.89;53.29;100260.69;5064514;28;20569;-83
2022/11/24 05:30:29;;;;;;;9.05;1.95;;;;;;;7.88;53.66;100262.53;5066274;28;20043;-82
2022/11/24 05:32:57;;;;;;;8.05;2.17;;;;;;;7.87;53.52;100268.09;5057561;28;20053;-82
2022/11/24 05:35:26;;;;;;;8.77;2.63;;;;;;;7.91;53.49;100266.88;5054406;28;20059;-82
2022/11/24 05:37:54;;;;;;;6.40;2.05;;;;;;;7.90;53.49;100292.38;5090331;28;20072;-82
2022/11/24 05:40:22;;;;;;;11.55;2.42;;;;;;;7.91;53.23;100285.94;5061756;28;20041;-82
2022/11/24 05:42:49;;;;;;;9.85;2.72;;;;;;;7.90;53.91;100278.75;5094367;28;20046;-83
2022/11/24 05:45:19;;;;;;;8.18;2.17;;;;;;;7.92;53.32;100283.09;5059671;28;20067;-82
2022/11/24 05:47:48;;;;;;;8.90;2.47;;;;;;;7.92;53.60;100293.13;5061247;28;20091;-82
2022/11/24 05:50:18;;;;;;;10.30;2.75;;;;;;;7.94;53.31;100297.41;5060990;28;20106;-83
2022/11/24 05:52:48;;;;;;;8.38;2.45;;;;;;;7.95;53.39;100298.28;5062894;28;20033;-83
2022/11/24 05:55:18;;;;;;;7.78;2.30;;;;;;;7.95;53.52;100303.72;5061194;28;20052;-83
2022/11/24 05:57:46;;;;;;;9.38;2.50;;;;;;;7.93;53.66;100309.31;5057603;28;20037;-83
2022/11/24 06:00:16;;;;;;;8.90;2.53;;;;;;;7.93;53.37;100301.13;5059052;28;20041;-83
2022/11/24 06:02:45;;;;;;;8.77;2.30;;;;;;;7.95;53.41;100303.72;5058855;28;20048;-83
2022/11/24 06:05:13;;;;;;;8.07;2.47;;;;;;;7.98;53.47;100318.97;5059591;28;20049;-83
2022/11/24 06:07:41;;;;;;;9.00;2.70;;;;;;;7.95;53.56;100310.06;5060324;28;20041;-83
2022/11/24 06:10:10;;;;;;;8.88;3.00;;;;;;;7.99;53.32;100317.97;5061138;28;20049;-83
2022/11/24 06:12:39;;;;;;;9.85;2.53;;;;;;;8.00;53.10;100330.59;5058634;28;20041;-83
2022/11/24 06:15:07;;;;;;;8.50;2.55;;;;;;;7.99;53.19;100320.69;5045002;28;20055;-81
2022/11/24 06:17:35;;;;;;;8.70;2.80;;;;;;;7.98;53.41;100319.84;5039397;28;20045;-80
2022/11/24 06:20:04;;;;;;;7.95;2.30;;;;;;;8.02;53.37;100323.16;5051807;28;20055;-80
2022/11/24 06:22:32;;;;;;;8.15;2.35;;;;;;;8.00;53.32;100323.31;5061647;28;20484;-81
2022/11/24 06:25:00;;;;;;;9.43;2.50;;;;;;;8.00;53.34;100328.75;5043024;28;20049;-81
2022/11/24 06:27:30;;;;;;;6.57;2.35;;;;;;;8.03;52.98;100342.09;5036099;28;20124;-81
2022/11/24 06:29:58;;;;;;;7.53;2.40;;;;;;;8.03;53.22;100341.22;5037002;28;20045;-81
2022/11/24 06:32:26;;;;;;;7.18;2.50;;;;;;;8.04;53.21;100352.00;5037012;28;20129;-80
2022/11/24 06:34:54;;;;;;;7.72;2.25;;;;;;;8.03;53.34;100350.28;5033423;28;20045;-81
2022/11/24 06:37:21;;;;;;;8.50;2.10;;;;;;;8.05;53.13;100356.47;5035441;28;20049;-81
2022/11/24 06:39:49;;;;;;;5.22;2.05;;;;;;;8.06;53.35;100357.31;5038035;28;20048;-81
2022/11/24 06:42:18;;;;;;;5.50;2.20;;;;;;;8.05;52.95;100356.47;5037821;28;20108;-81
2022/11/24 06:44:47;;;;;;;7.75;1.75;;;;;;;8.10;52.68;100361.50;5037956;28;20045;-82
2022/11/24 06:47:15;;;;;;;5.60;1.60;;;;;;;8.07;52.86;100361.78;5039979;28;20623;-81
2022/11/24 06:49:43;;;;;;;4.28;1.40;;;;;;;8.08;52.59;100367.13;5041270;28;20068;-81
2022/11/24 06:52:11;;;;;;;4.30;1.50;;;;;;;8.09;52.84;100371.56;5046899;28;20056;-80
2022/11/24 06:54:39;;;;;;;7.70;1.80;;;;;;;8.07;52.93;100373.56;5038981;28;20049;-81
2022/11/24 06:57:07;;;;;;;6.13;1.50;;;;;;;8.08;52.44;100369.84;5051316;28;20107;-81
2022/11/24 06:59:35;;;;;;;3.75;1.58;;;;;;;8.09;52.44;100373.44;5035686;28;20053;-81
2022/11/24 07:02:04;;;;;;;3.35;1.30;;;;;;;8.11;52.29;100385.03;5042922;28;20049;-80
2022/11/24 07:04:32;;;;;;;2.58;0.93;;;;;;;8.09;52.26;100382.47;5041519;28;21177;-81
2022/11/24 07:07:02;;;;;;;4.75;1.00;;;;;;;8.10;52.08;100388.75;5041145;28;20095;-81
2022/11/24 07:09:30;;;;;;;3.47;1.00;;;;;;;8.09;52.36;100396.09;5034070;28;20045;-83
2022/11/24 07:11:58;;;;;;;4.65;1.00;;;;;;;8.08;52.44;100401.69;5033877;28;20166;-83
2022/11/24 07:14:26;;;;;;;2.70;1.00;;;;;;;8.08;52.09;100412.56;5030371;28;20045;-82
2022/11/24 07:16:54;;;;;;;2.92;1.00;;;;;;;8.09;52.27;100417.03;5029567;28;20075;-82
2022/11/24 07:19:23;;;;;;;4.38;1.10;;;;;;;8.09;51.63;100415.19;5028180;28;20140;-81
2022/11/24 07:21:52;;;;;;;2.95;1.00;;;;;;;8.07;52.27;100425.34;5030369;28;20450;-82
2022/11/24 07:24:20;;;;;;;1.88;0.80;;;;;;;8.07;51.85;100429.91;5027206;28;20470;-81
2022/11/24 07:26:48;;;;;;;2.60;0.82;;;;;;;8.05;51.90;100435.50;5031163;28;20056;-81
2022/11/24 07:29:19;;;;;;;2.65;1.02;;;;;;;8.06;51.99;100441.81;5055918;28;20419;-81
2022/11/24 07:31:47;;;;;;;3.63;0.90;;;;;;;8.05;51.88;100448.25;5028330;28;20492;-81
2022/11/24 07:34:15;;;;;;;2.38;0.90;;;;;;;8.06;51.82;100456.31;5042930;28;20046;-81
2022/11/24 07:36:47;;;;;;;1.20;0.80;;;;;;;8.07;51.25;100462.63;5028039;28;20046;-83
2022/11/24 07:39:15;;;;;;;2.60;0.90;;;;;;;8.02;51.53;100465.72;5048233;28;20044;-82
2022/11/24 07:41:44;;;;;;;1.95;0.85;;;;;;;8.03;51.31;100467.44;5032913;28;20049;-81
2022/11/24 07:44:12;;;;;;;3.35;0.95;;;;;;;8.03;51.29;100474.75;5031028;28;20103;-80
2022/11/24 07:46:40;;;;;;;3.00;1.15;;;;;;;8.02;51.11;100478.47;5035639;28;20046;-82
2022/11/24 07:49:20;;;;;;;3.65;1.08;;;;;;;8.00;51.61;100475.91;5033641;28;20045;-82
2022/11/24 07:53:00;;;;;;;3.78;1.23;;;;;;;7.98;51.29;100494.22;5042441;28;20053;-82
2022/11/24 07:55:28;;;;;;;2.53;0.88;;;;;;;7.97;51.62;100500.66;5087069;28;20041;-81
2022/11/24 07:57:59;;;;;;;2.78;0.70;;;;;;;7.99;51.44;100503.28;5090900;28;20041;-82
2022/11/24 08:00:28;;;;;;;2.72;0.80;;;;;;;7.98;51.67;100510.59;5079670;28;20041;-80
2022/11/24 08:02:55;;;;;;;2.75;0.60;;;;;;;8.00;51.43;100518.63;5052929;28;20049;-81
2022/11/24 08:05:23;;;;;;;1.90;0.80;;;;;;;7.99;51.21;100517.78;5054072;28;20089;-82
2022/11/24 08:07:51;;;;;;;1.48;0.80;;;;;;;8.00;51.28;100518.63;5054785;28;20041;-81
2022/11/24 08:10:21;;;;;;;2.50;0.73;;;;;;;8.00;51.67;100516.78;5053919;28;20094;-80
2022/11/24 08:12:49;;;;;;;2.05;1.02;;;;;;;8.01;51.67;100521.25;5051746;28;20440;-81
2022/11/24 08:15:17;;;;;;;4.93;0.95;;;;;;;7.99;51.80;100523.22;5051634;28;20372;-82
2022/11/24 08:17:45;;;;;;;3.28;1.00;;;;;;;8.01;51.84;100532.16;5054670;28;20037;-82
2022/11/24 08:20:12;;;;;;;3.70;0.93;;;;;;;8.02;51.77;100528.41;5058024;28;20045;-81
2022/11/24 08:22:41;;;;;;;2.60;0.90;;;;;;;8.02;51.52;100538.44;5062936;28;20033;-80
2022/11/24 08:25:09;;;;;;;4.05;1.20;;;;;;;8.02;51.88;100539.31;5060161;28;20049;-81
2022/11/24 08:27:39;;;;;;;3.63;1.05;;;;;;;8.02;51.83;100531.13;5058209;28;20368;-82
2022/11/24 08:30:08;;;;;;;4.38;1.48;;;;;;;8.04;51.61;100548.22;5056464;28;20408;-82
2022/11/24 08:32:36;;;;;;;3.35;1.00;;;;;;;8.03;51.75;100548.34;5066514;28;20153;-81
2022/11/24 08:35:05;;;;;;;4.38;1.20;;;;;;;8.05;51.61;100547.25;5064140;28;20049;-81
2022/11/24 08:37:41;;;;;;;4.05;1.20;;;;;;;8.05;51.83;100554.53;5066285;28;20337;-81
2022/11/24 08:40:10;;;;;;;3.53;1.17;;;;;;;8.06;51.75;100559.88;5052897;28;20037;-81
2022/11/24 08:42:39;;;;;;;3.55;1.20;;;;;;;8.07;51.71;100556.16;5053960;28;20047;-81
2022/11/24 08:45:10;;;;;;;4.70;1.20;;;;;;;8.08;51.71;100554.31;5048183;28;20046;-80
2022/11/24 08:47:51;;;;;;;5.03;1.30;;;;;;;8.08;51.98;100557.91;5054515;28;20393;-82
2022/11/24 08:50:26;;;;;;;5.43;1.30;;;;;;;8.08;52.19;100568.81;5054184;28;20052;-80
2022/11/24 08:52:54;;;;;;;3.20;1.27;;;;;;;8.10;52.21;100574.97;5056194;28;20105;-80
2022/11/24 08:55:25;;;;;;;4.05;1.55;;;;;;;8.12;52.27;100569.41;5055333;28;20074;-81
2022/11/24 08:57:57;;;;;;;3.80;1.48;;;;;;;8.14;52.02;100573.78;5055601;28;20045;-82
2022/11/24 09:00:25;;;;;;;4.97;1.37;;;;;;;8.13;52.45;100573.88;5051772;28;20108;-81
2022/11/24 09:02:57;;;;;;;4.78;1.30;;;;;;;8.18;52.21;100588.88;5053962;28;20296;-81
2022/11/24 09:05:25;;;;;;;4.73;1.40;;;;;;;8.16;52.13;100593.59;5051771;28;20048;-82
2022/11/24 09:08:16;;;;;;;3.65;1.15;;;;;;;8.19;52.26;100596.06;5053445;28;20100;-82
2022/11/24 09:10:45;;;;;;;4.68;1.42;;;;;;;8.21;51.94;100595.94;5052508;28;20029;-82
2022/11/24 09:13:14;;;;;;;5.20;1.48;;;;;;;8.23;52.01;100597.56;5050330;28;20057;-82
2022/11/24 09:15:42;;;;;;;3.85;1.30;;;;;;;8.23;52.11;100613.03;5048181;28;20132;-80
2022/11/24 09:18:10;;;;;;;5.38;1.52;;;;;;;8.25;52.04;100605.63;5050478;28;20048;-81
2022/11/24 09:20:38;;;;;;;4.18;1.20;;;;;;;8.27;52.09;100611.78;5049108;28;20825;-82
2022/11/24 09:23:06;;;;;;;4.97;1.27;;;;;;;8.28;52.13;100624.44;5053843;28;20045;-81
2022/11/24 09:25:34;;;;;;;3.72;1.23;;;;;;;8.30;52.33;100617.00;5055197;28;20518;-80
2022/11/24 09:28:02;;;;;;;6.65;1.50;;;;;;;8.31;52.03;100618.75;5055400;28;20048;-80
2022/11/24 09:30:31;;;;;;;4.95;1.50;;;;;;;8.33;52.01;100628.53;5065292;28;20068;-81
2022/11/24 09:32:59;;;;;;;6.03;1.52;;;;;;;8.36;51.99;100631.97;5063729;28;20041;-81
2022/11/24 09:35:28;;;;;;;4.68;1.27;;;;;;;8.36;52.04;100631.97;5057885;28;22090;-82
2022/11/24 09:37:56;;;;;;;5.32;1.27;;;;;;;8.38;52.11;100643.63;5057592;28;20053;-81
2022/11/24 09:40:24;;;;;;;4.38;1.35;;;;;;;8.40;52.35;100639.81;5058011;28;20419;-82
2022/11/24 09:43:02;;;;;;;4.13;1.40;;;;;;;8.46;52.29;100649.31;5062730;28;20033;-82
2022/11/24 09:45:46;;;;;;;5.90;1.30;;;;;;;8.50;52.07;100653.56;5057447;28;20041;-82
2022/11/24 09:48:37;;;;;;;4.78;1.30;;;;;;;8.53;52.64;100656.00;5054971;28;20052;-82
2022/11/24 09:51:10;;;;;;;4.50;1.15;;;;;;;8.57;52.90;100655.66;5058355;28;20055;-81
2022/11/24 09:53:44;;;;;;;2.33;1.02;;;;;;;8.62;52.75;100657.97;5055128;28;20040;-80
2022/11/24 09:56:18;;;;;;;5.47;1.58;;;;;;;8.70;52.34;100660.94;5055673;28;20044;-81
2022/11/24 09:58:50;;;;;;;2.85;1.10;;;;;;;8.75;52.77;100657.84;5056451;28;20059;-82
2022/11/24 10:01:22;;;;;;;4.63;1.42;;;;;;;8.82;53.00;100676.31;5058445;28;20562;-81
2022/11/24 10:03:54;;;;;;;4.80;1.35;;;;;;;8.89;53.03;100660.28;5057090;28;20535;-80
2022/11/24 10:06:40;;;;;;;5.38;1.55;;;;;;;8.99;52.63;100662.13;5051441;28;20053;-81
2022/11/24 10:09:53;;;;;;;3.60;1.17;;;;;;;9.02;52.24;100671.91;5056063;28;20033;-81
2022/11/24 10:12:36;;;;;;;5.50;1.20;;;;;;;9.14;52.08;100679.06;4977986;28;20089;-80
2022/11/24 10:15:36;;;;;;;4.68;2.53;;;;;;;9.19;52.30;100659.53;4976072;28;20050;-81
2022/11/24 10:18:23;;;;;;;6.32;1.40;;;;;;;9.32;52.04;100691.16;5017872;28;20048;-80
2022/11/24 10:21:00;;;;;;;5.57;1.33;;;;;;;9.39;51.84;100681.47;5053806;28;20041;-81
2022/11/24 10:23:42;;;;;;;3.65;1.25;;;;;;;9.49;52.14;100688.88;5050786;28;20044;-81
2022/11/24 10:26:18;;;;;;;4.97;1.33;;;;;;;9.54;51.89;100686.63;5055033;28;20068;-80
2022/11/24 10:28:52;;;;;;;4.07;1.40;;;;;;;9.62;51.96;100692.28;5054403;28;20071;-79
2022/11/24 10:31:29;;;;;;;5.05;1.77;;;;;;;9.70;51.25;100698.81;5049090;28;20037;-80
2022/11/24 10:34:03;;;;;;;4.60;1.25;;;;;;;9.73;51.25;100698.56;5052830;28;20078;-81
2022/11/24 10:36:43;;;;;;;4.78;1.40;;;;;;;9.81;51.12;100709.69;5049025;28;20037;-80
2022/11/24 10:39:18;;;;;;;3.28;1.30;;;;;;;9.84;51.71;100695.75;5052180;28;20037;-82
2022/11/24 10:41:51;;;;;;;7.40;1.50;;;;;;;9.93;51.34;100704.16;5054564;28;20051;-82
2022/11/24 10:44:19;;;;;;;4.97;1.33;;;;;;;9.97;51.41;100701.03;5071850;28;20479;-81
2022/11/24 10:46:47;;;;;;;4.07;1.30;;;;;;;10.03;51.65;100707.81;5055487;28;20033;-82
2022/11/24 10:49:22;;;;;;;4.38;1.50;;;;;;;10.10;51.71;100715.34;5050758;28;20037;-77
2022/11/24 10:52:00;;;;;;;3.80;1.30;;;;;;;10.17;51.07;100711.06;5048192;28;20056;-78
2022/11/24 10:54:28;;;;;;;6.25;1.40;;;;;;;10.23;52.15;100717.88;5047026;28;20044;-79
2022/11/24 10:56:56;;;;;;;5.57;1.60;;;;;;;10.32;52.24;100724.41;5046364;28;20051;-78
2022/11/24 10:59:42;;;;;;;4.35;1.13;;;;;;;10.41;50.88;100729.03;5043882;28;20076;-78
2022/11/24 11:02:42;;;;;;;5.25;1.58;;;;;;;10.49;50.82;100710.94;5076002;28;20131;-78
2022/11/24 11:05:41;;;;;;;6.03;1.42;;;;;;;10.56;50.69;100722.25;5044916;28;20052;-78
2022/11/24 11:08:21;;;;;;;5.80;1.52;;;;;;;10.70;51.50;100716.38;5002234;28;20079;-77
2022/11/24 11:10:50;;;;;;;5.80;1.15;;;;;;;10.79;51.74;100718.28;5046585;28;20055;-78
2022/11/24 11:13:24;;;;;;;5.00;1.67;;;;;;;10.88;50.80;100722.06;5046725;28;20044;-79
2022/11/24 11:15:53;;;;;;;3.42;1.50;;;;;;;10.95;51.25;100728.72;5046308;28;20130;-82
2022/11/24 11:18:22;;;;;;;6.97;1.42;;;;;;;11.02;50.97;100729.00;5056553;28;20041;-80
2022/11/24 11:20:54;;;;;;;6.35;1.48;;;;;;;11.07;49.92;100721.22;5050870;28;20060;-81
2022/11/24 11:23:27;;;;;;;4.15;1.52;;;;;;;11.14;50.15;100725.16;5044295;28;20392;-78
2022/11/24 11:26:20;;;;;;;5.40;1.30;;;;;;;11.18;49.27;100734.81;5044460;28;20049;-78
2022/11/24 11:28:59;;;;;;;6.07;1.65;;;;;;;11.22;49.32;100725.31;5032820;28;20570;-78
2022/11/24 11:31:59;;;;;;;4.45;1.60;;;;;;;11.30;49.72;100734.56;5046972;28;20044;-77
2022/11/24 11:34:47;;;;;;;2.92;1.23;;;;;;;11.34;50.69;100735.13;5049146;28;20036;-80
2022/11/24 11:37:18;;;;;;;2.90;1.40;;;;;;;11.42;49.96;100738.00;5057141;28;20041;-80
2022/11/24 11:39:48;;;;;;;5.07;1.33;;;;;;;11.46;49.63;100747.69;5061108;28;20102;-81
2022/11/24 11:42:25;;;;;;;5.35;1.70;;;;;;;11.54;49.37;100746.97;5052747;28;20045;-82
2022/11/24 11:45:18;;;;;;;4.82;1.15;;;;;;;11.57;49.59;100746.66;5080729;28;20048;-80
2022/11/24 11:47:55;;;;;;;6.45;1.40;;;;;;;11.62;48.82;100747.16;5051094;28;20053;-81
2022/11/24 11:50:46;;;;;;;7.43;1.80;;;;;;;11.62;48.30;100742.56;5025038;28;20184;-85
2022/11/24 11:53:46;;;;;;;5.78;1.45;;;;;;;11.67;48.06;100742.97;5050791;28;20492;-83
2022/11/24 11:56:25;;;;;;;5.22;1.58;;;;;;;11.71;47.99;100743.56;5050431;28;21079;-83
2022/11/24 11:59:14;;;;;;;5.25;1.60;;;;;;;11.72;48.38;100739.78;5028878;28;20138;-85